YCF weather

Cortes Bay Water Aerodrome
Cortes Bay, British Columbia, Canada

Public forecast

Using degrees Celsius for public forecast. Weather courtesy of forecast.io.

METAR (pilot weather report)

Closest report is Campbell River Airport, 14.8 nm (27.4 km) WSW. Retrieved 2019/09/23 16:00 UTC (1 hour ago):

CYBL 231600Z 29002KT 4SM -RA BR SCT042 BKN060 10/09 A3010 RMK SC4SC3 PRESRR SLP195

TAF (pilot weather forecast)

Closest forecast is Campbell River Airport, 14.8 nm (27.4 km) WSW. Retrieved 2019/09/23 15:42 UTC (2 hours ago):

TAF TAF CYBL 231439Z 2315/2403 VRB03KT P6SM -RA SCT020 OVC040 TEMPO 2315/2319 5SM -SHRA BR OVC020 BECMG 2316/2318 12005KT FM231900 12012G22KT P6SM -RA SCT008 OVC020 TEMPO 2319/2323 3SM -SHRA BR OVC008 FM232300 12012G22KT P6SM -RA OVC008 RMK NXT FCST BY 231900Z